sensor_id;sensor_type;location;lat;lon;timestamp;P1;durP1;ratioP1;P2;durP2;ratioP2
72235;SDS011;60146;52.498;13.462;2023-06-10T00:01:21;11.73;;;4.97;;
72235;SDS011;60146;52.498;13.462;2023-06-10T00:03:49;11.43;;;4.20;;
72235;SDS011;60146;52.498;13.462;2023-06-10T00:06:17;9.10;;;3.45;;
72235;SDS011;60146;52.498;13.462;2023-06-10T00:08:43;9.17;;;3.50;;
72235;SDS011;60146;52.498;13.462;2023-06-10T00:11:08;8.17;;;3.80;;
72235;SDS011;60146;52.498;13.462;2023-06-10T00:13:33;10.10;;;3.50;;
72235;SDS011;60146;52.498;13.462;2023-06-10T00:15:59;8.97;;;3.50;;
72235;SDS011;60146;52.498;13.462;2023-06-10T00:18:24;12.27;;;3.37;;
72235;SDS011;60146;52.498;13.462;2023-06-10T00:20:52;9.60;;;3.07;;
72235;SDS011;60146;52.498;13.462;2023-06-10T00:23:18;11.03;;;3.40;;
72235;SDS011;60146;52.498;13.462;2023-06-10T00:25:43;9.97;;;3.40;;
72235;SDS011;60146;52.498;13.462;2023-06-10T00:28:09;8.00;;;3.00;;
72235;SDS011;60146;52.498;13.462;2023-06-10T00:30:34;8.53;;;3.93;;
72235;SDS011;60146;52.498;13.462;2023-06-10T00:32:59;9.57;;;3.27;;
72235;SDS011;60146;52.498;13.462;2023-06-10T00:35:25;7.57;;;3.53;;
72235;SDS011;60146;52.498;13.462;2023-06-10T00:37:50;11.93;;;3.10;;
72235;SDS011;60146;52.498;13.462;2023-06-10T00:40:16;9.83;;;3.23;;
72235;SDS011;60146;52.498;13.462;2023-06-10T00:42:41;9.00;;;3.50;;
72235;SDS011;60146;52.498;13.462;2023-06-10T00:45:07;9.10;;;4.00;;
72235;SDS011;60146;52.498;13.462;2023-06-10T00:47:32;12.60;;;3.70;;
72235;SDS011;60146;52.498;13.462;2023-06-10T00:50:00;10.77;;;3.40;;
72235;SDS011;60146;52.498;13.462;2023-06-10T00:52:27;11.20;;;3.23;;
72235;SDS011;60146;52.498;13.462;2023-06-10T00:54:55;7.67;;;2.80;;
72235;SDS011;60146;52.498;13.462;2023-06-10T00:57:20;9.30;;;3.07;;
72235;SDS011;60146;52.498;13.462;2023-06-10T00:59:47;7.50;;;2.90;;
72235;SDS011;60146;52.498;13.462;2023-06-10T01:02:13;7.93;;;3.57;;
72235;SDS011;60146;52.498;13.462;2023-06-10T01:04:38;10.97;;;3.37;;
72235;SDS011;60146;52.498;13.462;2023-06-10T01:14:59;7.30;;;3.40;;
72235;SDS011;60146;52.498;13.462;2023-06-10T01:17:26;6.70;;;2.93;;
72235;SDS011;60146;52.498;13.462;2023-06-10T01:19:55;7.23;;;3.20;;
72235;SDS011;60146;52.498;13.462;2023-06-10T01:22:25;11.02;;;3.20;;
72235;SDS011;60146;52.498;13.462;2023-06-10T01:24:57;16.00;;;3.57;;
72235;SDS011;60146;52.498;13.462;2023-06-10T01:27:29;9.50;;;3.30;;
72235;SDS011;60146;52.498;13.462;2023-06-10T01:30:09;10.33;;;3.10;;
72235;SDS011;60146;52.498;13.462;2023-06-10T01:32:43;9.40;;;3.10;;
72235;SDS011;60146;52.498;13.462;2023-06-10T01:35:10;8.82;;;3.15;;
72235;SDS011;60146;52.498;13.462;2023-06-10T01:37:40;8.10;;;3.20;;
72235;SDS011;60146;52.498;13.462;2023-06-10T01:40:07;6.40;;;3.07;;
72235;SDS011;60146;52.498;13.462;2023-06-10T01:42:34;9.90;;;3.97;;
72235;SDS011;60146;52.498;13.462;2023-06-10T01:45:00;8.43;;;3.17;;
72235;SDS011;60146;52.498;13.462;2023-06-10T01:47:25;7.67;;;2.83;;
72235;SDS011;60146;52.498;13.462;2023-06-10T01:49:51;8.97;;;3.10;;
72235;SDS011;60146;52.498;13.462;2023-06-10T01:52:16;10.40;;;3.40;;
72235;SDS011;60146;52.498;13.462;2023-06-10T01:54:42;8.70;;;3.30;;
72235;SDS011;60146;52.498;13.462;2023-06-10T01:57:07;8.37;;;3.20;;
72235;SDS011;60146;52.498;13.462;2023-06-10T01:59:33;10.23;;;3.27;;
72235;SDS011;60146;52.498;13.462;2023-06-10T02:01:58;10.27;;;3.07;;
72235;SDS011;60146;52.498;13.462;2023-06-10T02:04:23;8.90;;;3.10;;
72235;SDS011;60146;52.498;13.462;2023-06-10T02:06:49;14.30;;;3.67;;
72235;SDS011;60146;52.498;13.462;2023-06-10T02:09:15;6.30;;;2.83;;
72235;SDS011;60146;52.498;13.462;2023-06-10T02:11:47;7.13;;;3.07;;
72235;SDS011;60146;52.498;13.462;2023-06-10T02:14:12;7.87;;;3.63;;
72235;SDS011;60146;52.498;13.462;2023-06-10T02:16:37;11.33;;;3.60;;
72235;SDS011;60146;52.498;13.462;2023-06-10T02:19:07;8.33;;;3.40;;
72235;SDS011;60146;52.498;13.462;2023-06-10T02:21:33;9.50;;;3.40;;
72235;SDS011;60146;52.498;13.462;2023-06-10T02:24:01;10.50;;;3.10;;
72235;SDS011;60146;52.498;13.462;2023-06-10T02:26:26;11.17;;;3.50;;
72235;SDS011;60146;52.498;13.462;2023-06-10T02:28:52;11.07;;;3.40;;
72235;SDS011;60146;52.498;13.462;2023-06-10T02:31:17;8.90;;;3.53;;
72235;SDS011;60146;52.498;13.462;2023-06-10T02:33:43;7.93;;;3.10;;
72235;SDS011;60146;52.498;13.462;2023-06-10T02:36:09;7.03;;;3.27;;
72235;SDS011;60146;52.498;13.462;2023-06-10T02:38:38;9.60;;;3.30;;
72235;SDS011;60146;52.498;13.462;2023-06-10T02:41:05;9.47;;;3.27;;
72235;SDS011;60146;52.498;13.462;2023-06-10T02:43:31;7.97;;;3.40;;
72235;SDS011;60146;52.498;13.462;2023-06-10T02:45:56;10.03;;;3.60;;
72235;SDS011;60146;52.498;13.462;2023-06-10T02:48:23;9.87;;;3.60;;
72235;SDS011;60146;52.498;13.462;2023-06-10T02:50:49;6.83;;;3.00;;
72235;SDS011;60146;52.498;13.462;2023-06-10T02:53:14;11.10;;;4.17;;
72235;SDS011;60146;52.498;13.462;2023-06-10T02:55:40;12.90;;;3.40;;
72235;SDS011;60146;52.498;13.462;2023-06-10T02:58:05;7.33;;;3.07;;
72235;SDS011;60146;52.498;13.462;2023-06-10T03:00:32;8.53;;;3.53;;
72235;SDS011;60146;52.498;13.462;2023-06-10T03:02:58;9.87;;;3.37;;
72235;SDS011;60146;52.498;13.462;2023-06-10T03:05:27;11.52;;;3.38;;
72235;SDS011;60146;52.498;13.462;2023-06-10T03:07:53;11.07;;;3.80;;
72235;SDS011;60146;52.498;13.462;2023-06-10T03:10:18;5.67;;;3.10;;
72235;SDS011;60146;52.498;13.462;2023-06-10T03:12:43;8.60;;;3.83;;
72235;SDS011;60146;52.498;13.462;2023-06-10T03:15:09;9.07;;;3.73;;
72235;SDS011;60146;52.498;13.462;2023-06-10T03:17:34;12.47;;;3.43;;
72235;SDS011;60146;52.498;13.462;2023-06-10T03:20:00;13.43;;;3.50;;
72235;SDS011;60146;52.498;13.462;2023-06-10T03:22:25;9.70;;;4.03;;
72235;SDS011;60146;52.498;13.462;2023-06-10T03:24:51;11.57;;;3.47;;
72235;SDS011;60146;52.498;13.462;2023-06-10T03:27:16;7.70;;;3.20;;
72235;SDS011;60146;52.498;13.462;2023-06-10T03:29:42;9.67;;;3.40;;
72235;SDS011;60146;52.498;13.462;2023-06-10T03:32:08;10.20;;;3.43;;
72235;SDS011;60146;52.498;13.462;2023-06-10T03:34:33;10.73;;;3.77;;
72235;SDS011;60146;52.498;13.462;2023-06-10T03:36:59;6.80;;;3.80;;
72235;SDS011;60146;52.498;13.462;2023-06-10T03:39:25;11.27;;;4.00;;
72235;SDS011;60146;52.498;13.462;2023-06-10T03:41:53;8.13;;;3.50;;
72235;SDS011;60146;52.498;13.462;2023-06-10T03:44:19;13.97;;;3.80;;
72235;SDS011;60146;52.498;13.462;2023-06-10T03:46:44;8.37;;;4.13;;
72235;SDS011;60146;52.498;13.462;2023-06-10T03:49:10;10.63;;;3.63;;
72235;SDS011;60146;52.498;13.462;2023-06-10T03:51:36;12.83;;;3.90;;
72235;SDS011;60146;52.498;13.462;2023-06-10T03:54:01;10.47;;;3.70;;
72235;SDS011;60146;52.498;13.462;2023-06-10T03:56:27;13.07;;;3.53;;
72235;SDS011;60146;52.498;13.462;2023-06-10T03:58:53;7.97;;;3.80;;
72235;SDS011;60146;52.498;13.462;2023-06-10T04:01:19;10.13;;;3.90;;
72235;SDS011;60146;52.498;13.462;2023-06-10T04:03:46;11.87;;;3.80;;
72235;SDS011;60146;52.498;13.462;2023-06-10T04:06:13;9.33;;;3.57;;
72235;SDS011;60146;52.498;13.462;2023-06-10T04:08:38;9.80;;;3.40;;
72235;SDS011;60146;52.498;13.462;2023-06-10T04:11:04;9.87;;;3.67;;
72235;SDS011;60146;52.498;13.462;2023-06-10T04:13:29;10.23;;;3.90;;
72235;SDS011;60146;52.498;13.462;2023-06-10T04:15:54;9.93;;;4.03;;
72235;SDS011;60146;52.498;13.462;2023-06-10T04:18:20;10.43;;;4.40;;
72235;SDS011;60146;52.498;13.462;2023-06-10T04:20:46;7.93;;;3.77;;
72235;SDS011;60146;52.498;13.462;2023-06-10T04:23:12;12.40;;;4.20;;
72235;SDS011;60146;52.498;13.462;2023-06-10T04:25:37;10.00;;;4.07;;
72235;SDS011;60146;52.498;13.462;2023-06-10T04:28:02;8.63;;;3.67;;
72235;SDS011;60146;52.498;13.462;2023-06-10T04:30:28;10.23;;;4.20;;
72235;SDS011;60146;52.498;13.462;2023-06-10T04:32:53;10.67;;;4.10;;
72235;SDS011;60146;52.498;13.462;2023-06-10T04:35:19;10.27;;;3.90;;
72235;SDS011;60146;52.498;13.462;2023-06-10T04:37:44;7.23;;;3.83;;
72235;SDS011;60146;52.498;13.462;2023-06-10T04:40:10;14.63;;;4.30;;
72235;SDS011;60146;52.498;13.462;2023-06-10T04:42:36;25.60;;;4.67;;
72235;SDS011;60146;52.498;13.462;2023-06-10T04:45:02;9.57;;;3.63;;
72235;SDS011;60146;52.498;13.462;2023-06-10T04:47:28;10.10;;;4.30;;
72235;SDS011;60146;52.498;13.462;2023-06-10T04:49:54;8.83;;;4.30;;
72235;SDS011;60146;52.498;13.462;2023-06-10T04:52:19;14.07;;;4.83;;
72235;SDS011;60146;52.498;13.462;2023-06-10T04:54:45;12.47;;;4.63;;
72235;SDS011;60146;52.498;13.462;2023-06-10T04:57:10;10.93;;;3.73;;
72235;SDS011;60146;52.498;13.462;2023-06-10T04:59:36;10.43;;;4.03;;
72235;SDS011;60146;52.498;13.462;2023-06-10T05:02:03;8.83;;;3.73;;
72235;SDS011;60146;52.498;13.462;2023-06-10T05:04:29;8.93;;;4.10;;
72235;SDS011;60146;52.498;13.462;2023-06-10T05:06:55;10.00;;;3.90;;
72235;SDS011;60146;52.498;13.462;2023-06-10T05:09:20;7.20;;;3.90;;
72235;SDS011;60146;52.498;13.462;2023-06-10T05:11:46;9.73;;;4.37;;
72235;SDS011;60146;52.498;13.462;2023-06-10T05:14:11;6.43;;;3.70;;
72235;SDS011;60146;52.498;13.462;2023-06-10T05:16:37;11.90;;;4.30;;
72235;SDS011;60146;52.498;13.462;2023-06-10T05:19:03;14.50;;;4.23;;
72235;SDS011;60146;52.498;13.462;2023-06-10T05:21:29;17.37;;;4.47;;
72235;SDS011;60146;52.498;13.462;2023-06-10T05:23:54;10.93;;;4.20;;
72235;SDS011;60146;52.498;13.462;2023-06-10T05:26:19;9.43;;;4.00;;
72235;SDS011;60146;52.498;13.462;2023-06-10T05:28:45;9.43;;;4.67;;
72235;SDS011;60146;52.498;13.462;2023-06-10T05:31:10;13.43;;;4.10;;
72235;SDS011;60146;52.498;13.462;2023-06-10T05:33:36;8.30;;;3.93;;
72235;SDS011;60146;52.498;13.462;2023-06-10T05:36:01;18.50;;;4.73;;
72235;SDS011;60146;52.498;13.462;2023-06-10T05:38:27;12.10;;;4.37;;
72235;SDS011;60146;52.498;13.462;2023-06-10T05:40:52;14.10;;;4.03;;
72235;SDS011;60146;52.498;13.462;2023-06-10T05:43:17;11.95;;;4.30;;
72235;SDS011;60146;52.498;13.462;2023-06-10T05:45:43;8.38;;;4.47;;
72235;SDS011;60146;52.498;13.462;2023-06-10T05:48:08;8.27;;;4.32;;
72235;SDS011;60146;52.498;13.462;2023-06-10T05:50:34;9.38;;;4.22;;
72235;SDS011;60146;52.498;13.462;2023-06-10T05:53:03;10.20;;;4.47;;
72235;SDS011;60146;52.498;13.462;2023-06-10T05:55:29;10.27;;;4.25;;
72235;SDS011;60146;52.498;13.462;2023-06-10T05:57:58;10.93;;;4.65;;
72235;SDS011;60146;52.498;13.462;2023-06-10T06:00:25;9.63;;;4.38;;
72235;SDS011;60146;52.498;13.462;2023-06-10T06:02:51;10.05;;;4.50;;
72235;SDS011;60146;52.498;13.462;2023-06-10T06:05:17;9.57;;;4.22;;
72235;SDS011;60146;52.498;13.462;2023-06-10T06:07:43;12.68;;;4.30;;
72235;SDS011;60146;52.498;13.462;2023-06-10T06:10:08;9.48;;;4.07;;
72235;SDS011;60146;52.498;13.462;2023-06-10T06:12:33;9.02;;;4.60;;
72235;SDS011;60146;52.498;13.462;2023-06-10T06:14:59;9.45;;;4.00;;
72235;SDS011;60146;52.498;13.462;2023-06-10T06:17:24;11.35;;;5.07;;
72235;SDS011;60146;52.498;13.462;2023-06-10T06:19:50;7.30;;;4.45;;
72235;SDS011;60146;52.498;13.462;2023-06-10T06:22:15;9.60;;;4.90;;
72235;SDS011;60146;52.498;13.462;2023-06-10T06:24:44;11.57;;;5.28;;
72235;SDS011;60146;52.498;13.462;2023-06-10T06:27:10;16.02;;;6.30;;
72235;SDS011;60146;52.498;13.462;2023-06-10T06:29:35;11.30;;;6.63;;
72235;SDS011;60146;52.498;13.462;2023-06-10T06:32:00;10.27;;;5.85;;
72235;SDS011;60146;52.498;13.462;2023-06-10T06:34:26;10.98;;;4.25;;
72235;SDS011;60146;52.498;13.462;2023-06-10T06:36:51;10.02;;;5.60;;
72235;SDS011;60146;52.498;13.462;2023-06-10T06:39:16;7.65;;;4.53;;
72235;SDS011;60146;52.498;13.462;2023-06-10T06:41:42;8.05;;;4.45;;
72235;SDS011;60146;52.498;13.462;2023-06-10T06:44:07;7.70;;;4.45;;
72235;SDS011;60146;52.498;13.462;2023-06-10T06:46:32;10.57;;;4.72;;
72235;SDS011;60146;52.498;13.462;2023-06-10T06:48:58;10.23;;;4.80;;
72235;SDS011;60146;52.498;13.462;2023-06-10T06:51:23;13.15;;;4.35;;
72235;SDS011;60146;52.498;13.462;2023-06-10T06:53:48;10.27;;;4.60;;
72235;SDS011;60146;52.498;13.462;2023-06-10T06:56:16;8.30;;;4.65;;
72235;SDS011;60146;52.498;13.462;2023-06-10T06:58:41;10.65;;;4.57;;
72235;SDS011;60146;52.498;13.462;2023-06-10T07:01:06;8.90;;;4.90;;
72235;SDS011;60146;52.498;13.462;2023-06-10T07:03:32;12.85;;;4.75;;
72235;SDS011;60146;52.498;13.462;2023-06-10T07:05:57;8.63;;;4.47;;
72235;SDS011;60146;52.498;13.462;2023-06-10T07:08:23;6.85;;;4.20;;
72235;SDS011;60146;52.498;13.462;2023-06-10T07:10:48;8.45;;;4.68;;
72235;SDS011;60146;52.498;13.462;2023-06-10T07:13:14;10.68;;;4.82;;
72235;SDS011;60146;52.498;13.462;2023-06-10T07:15:39;8.27;;;4.85;;
72235;SDS011;60146;52.498;13.462;2023-06-10T07:18:05;8.93;;;4.72;;
72235;SDS011;60146;52.498;13.462;2023-06-10T07:20:30;9.23;;;4.70;;
72235;SDS011;60146;52.498;13.462;2023-06-10T07:22:55;10.10;;;5.25;;
72235;SDS011;60146;52.498;13.462;2023-06-10T07:25:21;10.30;;;4.57;;
72235;SDS011;60146;52.498;13.462;2023-06-10T07:27:46;7.78;;;4.68;;
72235;SDS011;60146;52.498;13.462;2023-06-10T07:30:12;8.98;;;4.75;;
72235;SDS011;60146;52.498;13.462;2023-06-10T07:32:37;9.00;;;4.43;;
72235;SDS011;60146;52.498;13.462;2023-06-10T07:35:03;10.57;;;4.82;;
72235;SDS011;60146;52.498;13.462;2023-06-10T07:37:28;12.10;;;4.80;;
72235;SDS011;60146;52.498;13.462;2023-06-10T07:39:55;7.05;;;4.97;;
72235;SDS011;60146;52.498;13.462;2023-06-10T07:42:21;9.13;;;4.53;;
72235;SDS011;60146;52.498;13.462;2023-06-10T07:44:46;7.82;;;4.40;;
72235;SDS011;60146;52.498;13.462;2023-06-10T07:47:12;9.57;;;4.90;;
72235;SDS011;60146;52.498;13.462;2023-06-10T07:49:37;8.55;;;5.22;;
72235;SDS011;60146;52.498;13.462;2023-06-10T07:52:02;10.40;;;4.93;;
72235;SDS011;60146;52.498;13.462;2023-06-10T07:54:28;11.27;;;4.47;;
72235;SDS011;60146;52.498;13.462;2023-06-10T07:56:53;18.27;;;4.90;;
72235;SDS011;60146;52.498;13.462;2023-06-10T07:59:18;11.63;;;4.90;;
72235;SDS011;60146;52.498;13.462;2023-06-10T08:01:44;11.02;;;4.95;;
72235;SDS011;60146;52.498;13.462;2023-06-10T08:04:09;8.10;;;4.80;;
72235;SDS011;60146;52.498;13.462;2023-06-10T08:06:35;7.88;;;4.70;;
72235;SDS011;60146;52.498;13.462;2023-06-10T08:09:01;9.20;;;4.57;;
72235;SDS011;60146;52.498;13.462;2023-06-10T08:11:27;9.55;;;4.65;;
72235;SDS011;60146;52.498;13.462;2023-06-10T08:13:53;9.75;;;4.90;;
72235;SDS011;60146;52.498;13.462;2023-06-10T08:16:19;10.68;;;5.25;;
72235;SDS011;60146;52.498;13.462;2023-06-10T08:18:44;8.60;;;5.15;;
72235;SDS011;60146;52.498;13.462;2023-06-10T08:21:10;13.50;;;5.35;;
72235;SDS011;60146;52.498;13.462;2023-06-10T08:23:35;8.00;;;4.75;;
72235;SDS011;60146;52.498;13.462;2023-06-10T08:26:00;10.60;;;5.25;;
72235;SDS011;60146;52.498;13.462;2023-06-10T08:28:26;8.57;;;5.45;;
72235;SDS011;60146;52.498;13.462;2023-06-10T08:30:51;6.97;;;5.43;;
72235;SDS011;60146;52.498;13.462;2023-06-10T08:33:16;10.15;;;6.03;;
72235;SDS011;60146;52.498;13.462;2023-06-10T08:35:41;13.73;;;5.70;;
72235;SDS011;60146;52.498;13.462;2023-06-10T08:38:07;7.70;;;5.32;;
72235;SDS011;60146;52.498;13.462;2023-06-10T08:40:32;10.07;;;5.00;;
72235;SDS011;60146;52.498;13.462;2023-06-10T08:43:08;13.43;;;5.30;;
72235;SDS011;60146;52.498;13.462;2023-06-10T08:45:42;12.85;;;5.65;;
72235;SDS011;60146;52.498;13.462;2023-06-10T08:48:09;9.63;;;5.03;;
72235;SDS011;60146;52.498;13.462;2023-06-10T08:50:37;8.35;;;5.43;;
72235;SDS011;60146;52.498;13.462;2023-06-10T08:53:06;9.98;;;5.15;;
72235;SDS011;60146;52.498;13.462;2023-06-10T08:55:33;8.10;;;5.75;;
72235;SDS011;60146;52.498;13.462;2023-06-10T08:58:01;8.57;;;5.07;;
72235;SDS011;60146;52.498;13.462;2023-06-10T09:00:27;12.50;;;5.47;;
72235;SDS011;60146;52.498;13.462;2023-06-10T09:02:55;10.23;;;5.35;;
72235;SDS011;60146;52.498;13.462;2023-06-10T09:05:21;10.38;;;5.22;;
72235;SDS011;60146;52.498;13.462;2023-06-10T09:07:47;8.32;;;4.82;;
72235;SDS011;60146;52.498;13.462;2023-06-10T09:10:13;9.90;;;4.78;;
72235;SDS011;60146;52.498;13.462;2023-06-10T09:12:39;10.13;;;5.03;;
72235;SDS011;60146;52.498;13.462;2023-06-10T09:15:04;8.38;;;5.10;;
72235;SDS011;60146;52.498;13.462;2023-06-10T09:17:31;8.00;;;4.90;;
72235;SDS011;60146;52.498;13.462;2023-06-10T09:19:57;8.32;;;4.90;;
72235;SDS011;60146;52.498;13.462;2023-06-10T09:22:22;8.90;;;5.00;;
72235;SDS011;60146;52.498;13.462;2023-06-10T09:24:48;14.20;;;5.25;;
72235;SDS011;60146;52.498;13.462;2023-06-10T09:27:14;13.32;;;5.20;;
72235;SDS011;60146;52.498;13.462;2023-06-10T09:29:53;9.40;;;4.88;;
72235;SDS011;60146;52.498;13.462;2023-06-10T09:32:19;7.13;;;4.70;;
72235;SDS011;60146;52.498;13.462;2023-06-10T09:34:46;9.57;;;4.90;;
72235;SDS011;60146;52.498;13.462;2023-06-10T09:37:13;7.60;;;4.57;;
72235;SDS011;60146;52.498;13.462;2023-06-10T09:39:44;10.60;;;4.07;;
72235;SDS011;60146;52.498;13.462;2023-06-10T09:42:18;8.25;;;4.40;;
72235;SDS011;60146;52.498;13.462;2023-06-10T09:44:52;9.60;;;4.43;;
72235;SDS011;60146;52.498;13.462;2023-06-10T09:47:21;10.88;;;4.47;;
72235;SDS011;60146;52.498;13.462;2023-06-10T09:49:48;10.73;;;4.32;;
72235;SDS011;60146;52.498;13.462;2023-06-10T09:52:14;10.90;;;4.68;;
72235;SDS011;60146;52.498;13.462;2023-06-10T09:54:47;7.03;;;4.35;;
72235;SDS011;60146;52.498;13.462;2023-06-10T09:57:12;12.10;;;4.75;;
72235;SDS011;60146;52.498;13.462;2023-06-10T09:59:37;8.15;;;4.75;;
72235;SDS011;60146;52.498;13.462;2023-06-10T10:02:03;9.60;;;4.95;;
72235;SDS011;60146;52.498;13.462;2023-06-10T10:04:29;9.20;;;4.70;;
72235;SDS011;60146;52.498;13.462;2023-06-10T10:06:55;9.63;;;5.00;;
72235;SDS011;60146;52.498;13.462;2023-06-10T10:09:20;8.85;;;4.75;;
72235;SDS011;60146;52.498;13.462;2023-06-10T10:11:46;10.02;;;4.75;;
72235;SDS011;60146;52.498;13.462;2023-06-10T10:14:13;9.45;;;4.85;;
72235;SDS011;60146;52.498;13.462;2023-06-10T10:16:41;10.00;;;5.00;;
72235;SDS011;60146;52.498;13.462;2023-06-10T10:19:10;9.23;;;4.90;;
72235;SDS011;60146;52.498;13.462;2023-06-10T10:21:47;8.00;;;5.00;;
72235;SDS011;60146;52.498;13.462;2023-06-10T10:24:20;7.03;;;4.38;;
72235;SDS011;60146;52.498;13.462;2023-06-10T10:26:48;8.38;;;4.25;;
72235;SDS011;60146;52.498;13.462;2023-06-10T10:34:22;6.45;;;3.78;;
72235;SDS011;60146;52.498;13.462;2023-06-10T10:36:56;5.25;;;4.13;;
72235;SDS011;60146;52.498;13.462;2023-06-10T10:39:22;7.03;;;3.85;;
72235;SDS011;60146;52.498;13.462;2023-06-10T10:41:49;6.50;;;3.85;;
72235;SDS011;60146;52.498;13.462;2023-06-10T10:44:15;5.88;;;3.63;;
72235;SDS011;60146;52.498;13.462;2023-06-10T10:46:42;4.80;;;3.13;;
72235;SDS011;60146;52.498;13.462;2023-06-10T10:49:14;6.32;;;3.35;;
72235;SDS011;60146;52.498;13.462;2023-06-10T10:52:14;5.80;;;3.70;;
72235;SDS011;60146;52.498;13.462;2023-06-10T10:54:36;4.50;;;3.47;;
72235;SDS011;60146;52.498;13.462;2023-06-10T10:57:17;4.00;;;3.35;;
72235;SDS011;60146;52.498;13.462;2023-06-10T11:02:41;8.32;;;3.53;;
72235;SDS011;60146;52.498;13.462;2023-06-10T11:05:14;4.05;;;3.22;;
72235;SDS011;60146;52.498;13.462;2023-06-10T11:07:40;4.13;;;3.42;;
72235;SDS011;60146;52.498;13.462;2023-06-10T11:10:16;5.18;;;3.40;;
72235;SDS011;60146;52.498;13.462;2023-06-10T11:15:10;6.07;;;3.22;;
72235;SDS011;60146;52.498;13.462;2023-06-10T11:17:36;5.93;;;3.40;;
72235;SDS011;60146;52.498;13.462;2023-06-10T11:20:01;4.32;;;3.40;;
72235;SDS011;60146;52.498;13.462;2023-06-10T11:22:27;4.03;;;2.95;;
72235;SDS011;60146;52.498;13.462;2023-06-10T11:24:53;5.30;;;3.42;;
72235;SDS011;60146;52.498;13.462;2023-06-10T11:27:21;4.55;;;3.10;;
72235;SDS011;60146;52.498;13.462;2023-06-10T11:32:32;6.22;;;3.45;;
72235;SDS011;60146;52.498;13.462;2023-06-10T11:34:59;4.70;;;3.22;;
72235;SDS011;60146;52.498;13.462;2023-06-10T11:37:28;4.28;;;3.47;;
72235;SDS011;60146;52.498;13.462;2023-06-10T11:39:53;5.63;;;4.07;;
72235;SDS011;60146;52.498;13.462;2023-06-10T11:42:21;5.50;;;3.33;;
72235;SDS011;60146;52.498;13.462;2023-06-10T11:44:48;4.65;;;3.38;;
72235;SDS011;60146;52.498;13.462;2023-06-10T11:47:18;5.90;;;3.35;;
72235;SDS011;60146;52.498;13.462;2023-06-10T11:49:44;4.30;;;3.40;;
72235;SDS011;60146;52.498;13.462;2023-06-10T11:52:10;4.80;;;3.60;;
72235;SDS011;60146;52.498;13.462;2023-06-10T11:54:36;6.40;;;3.20;;
72235;SDS011;60146;52.498;13.462;2023-06-10T11:57:02;6.25;;;3.17;;
72235;SDS011;60146;52.498;13.462;2023-06-10T11:59:33;4.60;;;3.03;;
72235;SDS011;60146;52.498;13.462;2023-06-10T12:01:58;4.43;;;3.33;;
72235;SDS011;60146;52.498;13.462;2023-06-10T12:04:24;8.82;;;3.80;;
72235;SDS011;60146;52.498;13.462;2023-06-10T12:06:53;4.35;;;3.13;;
72235;SDS011;60146;52.498;13.462;2023-06-10T12:11:50;4.82;;;3.15;;
72235;SDS011;60146;52.498;13.462;2023-06-10T12:17:22;4.97;;;3.45;;
72235;SDS011;60146;52.498;13.462;2023-06-10T12:20:09;5.47;;;3.65;;
72235;SDS011;60146;52.498;13.462;2023-06-10T12:22:50;4.57;;;3.55;;
72235;SDS011;60146;52.498;13.462;2023-06-10T12:25:15;6.30;;;3.65;;
72235;SDS011;60146;52.498;13.462;2023-06-10T12:27:49;9.98;;;3.92;;
72235;SDS011;60146;52.498;13.462;2023-06-10T12:30:18;6.95;;;4.40;;
72235;SDS011;60146;52.498;13.462;2023-06-10T12:32:45;8.30;;;4.60;;
72235;SDS011;60146;52.498;13.462;2023-06-10T12:35:18;8.55;;;5.05;;
72235;SDS011;60146;52.498;13.462;2023-06-10T12:37:59;10.23;;;4.75;;
72235;SDS011;60146;52.498;13.462;2023-06-10T12:40:27;8.77;;;4.90;;
72235;SDS011;60146;52.498;13.462;2023-06-10T12:42:57;6.18;;;4.93;;
72235;SDS011;60146;52.498;13.462;2023-06-10T12:45:26;6.43;;;4.68;;
72235;SDS011;60146;52.498;13.462;2023-06-10T12:50:50;6.45;;;5.00;;
72235;SDS011;60146;52.498;13.462;2023-06-10T12:53:18;6.70;;;4.60;;
72235;SDS011;60146;52.498;13.462;2023-06-10T12:55:44;5.40;;;4.60;;
72235;SDS011;60146;52.498;13.462;2023-06-10T12:58:10;5.55;;;4.50;;
72235;SDS011;60146;52.498;13.462;2023-06-10T13:00:36;9.35;;;4.80;;
72235;SDS011;60146;52.498;13.462;2023-06-10T13:03:02;8.15;;;5.03;;
72235;SDS011;60146;52.498;13.462;2023-06-10T13:05:30;5.95;;;5.00;;
72235;SDS011;60146;52.498;13.462;2023-06-10T13:07:55;6.47;;;5.20;;
72235;SDS011;60146;52.498;13.462;2023-06-10T13:10:21;6.75;;;4.97;;
72235;SDS011;60146;52.498;13.462;2023-06-10T13:12:47;9.70;;;4.80;;
72235;SDS011;60146;52.498;13.462;2023-06-10T13:15:12;9.73;;;4.70;;
72235;SDS011;60146;52.498;13.462;2023-06-10T13:17:38;9.10;;;4.57;;
72235;SDS011;60146;52.498;13.462;2023-06-10T13:20:05;10.05;;;5.05;;
72235;SDS011;60146;52.498;13.462;2023-06-10T13:22:32;6.82;;;4.88;;
72235;SDS011;60146;52.498;13.462;2023-06-10T13:24:58;8.80;;;4.93;;
72235;SDS011;60146;52.498;13.462;2023-06-10T13:27:24;5.97;;;5.03;;
72235;SDS011;60146;52.498;13.462;2023-06-10T13:29:50;8.27;;;5.40;;
72235;SDS011;60146;52.498;13.462;2023-06-10T13:32:15;9.32;;;5.10;;
72235;SDS011;60146;52.498;13.462;2023-06-10T13:34:41;8.02;;;5.05;;
72235;SDS011;60146;52.498;13.462;2023-06-10T13:37:06;5.85;;;4.50;;
72235;SDS011;60146;52.498;13.462;2023-06-10T13:39:32;7.78;;;5.05;;
72235;SDS011;60146;52.498;13.462;2023-06-10T13:41:57;5.43;;;4.85;;
72235;SDS011;60146;52.498;13.462;2023-06-10T13:44:22;6.85;;;5.00;;
72235;SDS011;60146;52.498;13.462;2023-06-10T13:46:48;7.78;;;4.95;;
72235;SDS011;60146;52.498;13.462;2023-06-10T13:49:13;7.35;;;4.70;;
72235;SDS011;60146;52.498;13.462;2023-06-10T13:51:39;6.60;;;4.85;;
72235;SDS011;60146;52.498;13.462;2023-06-10T13:54:04;10.57;;;5.22;;
72235;SDS011;60146;52.498;13.462;2023-06-10T13:56:29;8.25;;;5.10;;
72235;SDS011;60146;52.498;13.462;2023-06-10T13:58:55;8.80;;;4.90;;
72235;SDS011;60146;52.498;13.462;2023-06-10T14:01:20;8.95;;;5.13;;
72235;SDS011;60146;52.498;13.462;2023-06-10T14:03:49;8.30;;;5.00;;
72235;SDS011;60146;52.498;13.462;2023-06-10T14:06:14;7.18;;;4.80;;
72235;SDS011;60146;52.498;13.462;2023-06-10T14:08:43;11.82;;;5.38;;
72235;SDS011;60146;52.498;13.462;2023-06-10T14:11:09;8.23;;;5.15;;
72235;SDS011;60146;52.498;13.462;2023-06-10T14:13:34;9.18;;;5.15;;
72235;SDS011;60146;52.498;13.462;2023-06-10T14:16:04;12.55;;;5.40;;
72235;SDS011;60146;52.498;13.462;2023-06-10T14:18:29;7.25;;;4.97;;
72235;SDS011;60146;52.498;13.462;2023-06-10T14:20:55;9.20;;;4.82;;
72235;SDS011;60146;52.498;13.462;2023-06-10T14:23:21;7.57;;;4.72;;
72235;SDS011;60146;52.498;13.462;2023-06-10T14:25:46;7.68;;;4.53;;
72235;SDS011;60146;52.498;13.462;2023-06-10T14:28:12;8.23;;;4.97;;
72235;SDS011;60146;52.498;13.462;2023-06-10T14:30:37;8.80;;;4.57;;
72235;SDS011;60146;52.498;13.462;2023-06-10T14:33:02;11.52;;;4.40;;
72235;SDS011;60146;52.498;13.462;2023-06-10T14:35:28;5.45;;;4.43;;
72235;SDS011;60146;52.498;13.462;2023-06-10T14:37:53;7.47;;;4.53;;
72235;SDS011;60146;52.498;13.462;2023-06-10T14:40:18;5.10;;;4.18;;
72235;SDS011;60146;52.498;13.462;2023-06-10T14:42:46;7.22;;;4.53;;
72235;SDS011;60146;52.498;13.462;2023-06-10T14:45:12;6.07;;;4.40;;
72235;SDS011;60146;52.498;13.462;2023-06-10T14:47:37;7.43;;;4.18;;
72235;SDS011;60146;52.498;13.462;2023-06-10T14:50:02;6.15;;;4.30;;
72235;SDS011;60146;52.498;13.462;2023-06-10T14:52:28;7.03;;;4.35;;
72235;SDS011;60146;52.498;13.462;2023-06-10T14:54:53;15.05;;;4.57;;
72235;SDS011;60146;52.498;13.462;2023-06-10T14:57:19;7.03;;;4.60;;